CheckWX is a tool to help pilots better visualize weather data.  It is not intended as a substitute for an official pre-flight weather briefing.

00:33:12 UTC

KASD TAF
Slidell Airport
Slidell, Louisiana, USA
KASD 162320Z 1700/1724 VRB03KT P6SM SKC

Nov-17@
00:00 UTC

Nov-17 @ 00:00 UTC

Nov-18@
00:00 UTC

Nov-18 @ 00:00 UTC

KASD 162320Z 1700/1724 VRB03KT P6SM SKC
Wind
  • Variable at 3 KTS
Cloud Levels
  • Clear skies